East Kimberley Regional Airport

Airport
ICAO code: 
YPKU
IATA Code: 
KNX
Summary
ICAO Region: 
APAC
Territory: 
Location: 
Kununurra, Western Australia
Serving: 
Kununurra
Elevation: 
145 ft
Coordinates: 
Aerial View: 
15° 46' 41.434" S, 128° 42' 33.996" E
Metar
Observation
YPKU 241600Z AUTO 24004KT 6000 // BKN120 25/24 Q1004
Station
Kununurra Kununurra Aws
Date/Time
2022-01-24 16:00:00
Wind direction
240°
Wind speed
04 kts
Lowest cloud amount
broken clouds
Temperature
25°C
Dew point
24°C
Humidity
94%
QNH
1004 hPa
Weather condition
n/a

Kununurra Airport is an airport in Kununurra, Western Australia. The airport is 2.5 km from the town centre.

Runways

Designator Length Width Surface Rops
12/30 1829 30 ASP Yes/Yes
Airport map: 
Aerial View: 

SKYbrary Partners:

Safety knowledge contributed by: